WetterOnline ( https://www.wetteronline.de )

Wetter aktuell Ahrensburg

Aktuelles Wetter: Hamburg/Fuhlsbüttel (15m)

6-stündlich | Neueste Meldungen
Ortszeit Temperatur Wetter
Fr, 19.08. 20:00 21.6° C leicht bewölkt
Fr, 19.08. 14:00 21.3° C bewölkt
Fr, 19.08. 8:00 17.9° C bedeckt
Fr, 19.08. 2:00 18.5° C bedeckt
Do, 18.08. 20:00 22.0° C leicht bewölkt
Do, 18.08. 14:00 24.1° C wolkig
Do, 18.08. 8:00 19.0° C wolkig
Do, 18.08. 2:00 18.8° C leicht bewölkt
Ortszeit Temperatur Wetter
Sa, 20.08. 1:00 15.7° C Nebel
Sa, 20.08. 0:50 15.7° C Dunst
Sa, 20.08. 0:40 15.2° C Dunst
Sa, 20.08. 0:30 16.0° C Nebel
Sa, 20.08. 0:20 16.0° C Dunst
Sa, 20.08. 0:10 16.1° C Dunst
Sa, 20.08. 0:00 16.1° C wolkig
Fr, 19.08. 23:30 16.4° C wolkig
Fr, 19.08. 23:00 17.0° C wolkig
Fr, 19.08. 22:30 17.3° C wolkig
Fr, 19.08. 22:00 17.6° C leicht bewölkt
Fr, 19.08. 21:30 19.2° C wolkig
Ortszeit Relative Feuchte Sichtweite
Fr, 19.08. 20:00 71% 35 km
Fr, 19.08. 14:00 78% 20 km
Fr, 19.08. 8:00 94% 5.0 km
Fr, 19.08. 2:00 89% 19 km
Do, 18.08. 20:00 75% 30 km
Do, 18.08. 14:00 68% 20 km
Do, 18.08. 8:00 90% 26 km
Do, 18.08. 2:00 87% 50 km
Ortszeit Relative Feuchte Sichtweite
Sa, 20.08. 1:00 97% 4.2 km
Sa, 20.08. 0:50 97% -
Sa, 20.08. 0:40 97% -
Sa, 20.08. 0:30 97% 6 km
Sa, 20.08. 0:20 97% -
Sa, 20.08. 0:10 97% -
Sa, 20.08. 0:00 97% 8 km
Fr, 19.08. 23:30 97% 5.0 km
Fr, 19.08. 23:00 94% 11 km
Fr, 19.08. 22:30 93% 7 km
Fr, 19.08. 22:00 92% 13 km
Fr, 19.08. 21:30 85% 15 km
Ortszeit Niederschlagsmenge Niederschlagsart
Fr, 19.08. 20:00 0.0 l/m2 in 12 Std. -
Fr, 19.08. 14:00 0.0 l/m2 in 6 Std. -
Fr, 19.08. 8:00 0.0 l/m2 in 12 Std. -
Fr, 19.08. 2:00 0.0 l/m2 in 6 Std. -
Do, 18.08. 20:00 0.0 l/m2 in 12 Std. -
Do, 18.08. 14:00 0.0 l/m2 in 6 Std. -
Do, 18.08. 8:00 2 l/m2 in 12 Std. -
Do, 18.08. 2:00 2 l/m2 in 6 Std. Regen
Ortszeit Niederschlagsmenge Niederschlagsart
Sa, 20.08. 1:00 0.0 l/m2 in 1 Std. -
Sa, 20.08. 0:50 keine Meldung -
Sa, 20.08. 0:40 keine Meldung -
Sa, 20.08. 0:30 0.0 l/m2 in 1 Std. -
Sa, 20.08. 0:20 keine Meldung -
Sa, 20.08. 0:10 keine Meldung -
Sa, 20.08. 0:00 0.0 l/m2 in 1 Std. -
Fr, 19.08. 23:30 0.0 l/m2 in 1 Std. -
Fr, 19.08. 23:00 0.0 l/m2 in 1 Std. -
Fr, 19.08. 22:30 0.0 l/m2 in 1 Std. -
Fr, 19.08. 22:00 0.0 l/m2 in 1 Std. -
Fr, 19.08. 21:30 0.0 l/m2 in 1 Std. -
Ortszeit Stärke Spitze Richtung
km/h Bft. km/h Grad Sektor
Fr, 19.08. 20:00 13 3 22 300° NW
Fr, 19.08. 14:00 14 3 22 300° NW
Fr, 19.08. 8:00 11 2 22 330° NW
Fr, 19.08. 2:00 7 2 29 300° NW
Do, 18.08. 20:00 20 4 30 300° NW
Do, 18.08. 14:00 9 2 28 280° W
Do, 18.08. 8:00 0 0 18 - -
Do, 18.08. 2:00 11 2 36 70° O
Ortszeit Stärke Spitze Richtung
km/h Bft. km/h Grad Sektor
Sa, 20.08. 1:00 0 0 4 - -
Sa, 20.08. 0:50 0 0 - 250° W
Sa, 20.08. 0:40 0 0 - 210° SW
Sa, 20.08. 0:30 4 1 4 320° NW
Sa, 20.08. 0:20 4 1 - 320° NW
Sa, 20.08. 0:10 2 1 - 350° N
Sa, 20.08. 0:00 4 1 7 80° O
Fr, 19.08. 23:30 4 1 7 310° NW
Fr, 19.08. 23:00 4 1 7 240° SW
Fr, 19.08. 22:30 4 1 7 290° W
Fr, 19.08. 22:00 4 1 7 330° NW
Fr, 19.08. 21:30 7 2 7 330° NW
Ortszeit Untergrenze Bedeckung Gattung
total tief tief mittel hoch
Fr, 19.08. 20:00 10500 m 4/8 0/8 - - -
Fr, 19.08. 14:00 420 m 7/8 7/8 - - -
Fr, 19.08. 8:00 150 m 8/8 8/8 - - -
Fr, 19.08. 2:00 300 m 8/8 8/8 - - -
Do, 18.08. 20:00 6300 m 4/8 3/8 - - -
Do, 18.08. 14:00 600 m 5/8 5/8 - - -
Do, 18.08. 8:00 7800 m 8/8 0/8 - - -
Do, 18.08. 2:00 2700 m 2/8 2/8 - - -
Ortszeit Bedeckungsgrad in Achtel und Wolkenuntergrenze
Sa, 20.08. 1:00 3(1500m) 8(6900m)
Sa, 20.08. 0:50 3(1500m) 8(6900m)
Sa, 20.08. 0:40 8
Sa, 20.08. 0:30 8(7200m) 8(9000m)
Sa, 20.08. 0:20 8(7200m) 8(9000m)
Sa, 20.08. 0:10 8
Sa, 20.08. 0:00 8(7500m)
Fr, 19.08. 23:30 7(7800m) 8(9000m) 8(10500m)
Fr, 19.08. 23:00 3(8400m) 7(9000m) 8(10500m)
Fr, 19.08. 22:30 2(9000m) 6(10500m) 7(10500m)
Fr, 19.08. 22:00 2(9000m) 4(9000m)
Fr, 19.08. 21:30 7(9000m) 8(9000m) 8(12000m)
Ortszeit Luftdruck NN (hPa) Tendenz (hPa in 3 Std.)
Fr, 19.08. 20:00 1013 + 0,4
Fr, 19.08. 14:00 1013 - 0,1
Fr, 19.08. 8:00 1012 + 0,7
Fr, 19.08. 2:00 1013 - 0,2
Do, 18.08. 20:00 1012 + 0,3
Do, 18.08. 14:00 1012 0,0
Do, 18.08. 8:00 1011 + 0,4
Do, 18.08. 2:00 1011 + 0,2
Ortszeit Luftdruck NN (hPa) Tendenz (hPa in 3 Std.)
Sa, 20.08. 1:00 1014 + 0,7
Sa, 20.08. 0:50 1014 keine Meldung
Sa, 20.08. 0:40 1014 keine Meldung
Sa, 20.08. 0:30 1014 + 0,7
Sa, 20.08. 0:20 1014 keine Meldung
Sa, 20.08. 0:10 1013 keine Meldung
Sa, 20.08. 0:00 1014 + 0,7
Fr, 19.08. 23:30 1014 + 0,6
Fr, 19.08. 23:00 1014 + 0,8
Fr, 19.08. 22:30 1013 + 0,4
Fr, 19.08. 22:00 1013 + 0,2
Fr, 19.08. 21:30 1013 - 0,2
Ortszeit Schneehöhe (cm)
Fr, 19.08. 20:00 0
Fr, 19.08. 14:00 0
Fr, 19.08. 8:00 0
Fr, 19.08. 2:00 0
Do, 18.08. 20:00 0
Do, 18.08. 14:00 0
Do, 18.08. 8:00 0
Do, 18.08. 2:00 0
Ortszeit Schneehöhe (cm)
Sa, 20.08. 1:00 0
Sa, 20.08. 0:50 0
Sa, 20.08. 0:40 0
Sa, 20.08. 0:30 0
Sa, 20.08. 0:20 0
Sa, 20.08. 0:10 0
Sa, 20.08. 0:00 0
Fr, 19.08. 23:30 0
Fr, 19.08. 23:00 0
Fr, 19.08. 22:30 0
Fr, 19.08. 22:00 0
Fr, 19.08. 21:30 0
Link zu dieser Seite / Seite empfehlen

Das Wetter in ...